Time;durP1;ratioP1;P1;durP2;ratioP2;P2;SDS_P1;SDS_P2;PMS_P1;PMS_P2;Temp;Humidity;BMP_temperature;BMP_pressure;BME280_temperature;BME280_humidity;BME280_pressure;Samples;Min_cycle;Max_cycle;Signal;HPM_P1;HPM_P2
2021/10/17 00:00:00;;;;;;;13.27;4.60;;;;;;;10.52;76.84;102139.13;5014856;28;20076;-71
2021/10/17 00:02:25;;;;;;;13.90;4.22;;;;;;;10.52;76.80;102133.88;5014618;28;20493;-71
2021/10/17 00:04:52;;;;;;;11.55;4.35;;;;;;;10.55;76.69;102135.72;5014459;28;20033;-72
2021/10/17 00:07:17;;;;;;;18.52;5.07;;;;;;;10.57;76.44;102142.84;5014404;28;20029;-72
2021/10/17 00:09:43;;;;;;;13.93;4.30;;;;;;;10.54;76.71;102139.19;5014707;28;20382;-71
2021/10/17 00:12:10;;;;;;;9.60;4.25;;;;;;;10.55;77.04;102133.09;5014601;28;20084;-71
2021/10/17 00:14:36;;;;;;;14.10;4.90;;;;;;;10.55;76.90;102127.81;5014519;28;20057;-71
2021/10/17 00:17:02;;;;;;;22.42;5.10;;;;;;;10.53;77.49;102134.78;5014348;28;20060;-72
2021/10/17 00:19:28;;;;;;;14.15;5.13;;;;;;;10.52;77.38;102133.88;5012917;28;20052;-70
2021/10/17 00:21:54;;;;;;;8.73;4.25;;;;;;;10.50;77.82;102130.31;5014230;28;20033;-72
2021/10/17 00:24:19;;;;;;;12.98;4.60;;;;;;;10.49;77.52;102133.75;5014452;28;20054;-72
2021/10/17 00:26:44;;;;;;;12.95;4.70;;;;;;;10.48;78.32;102133.72;5013221;28;20025;-72
2021/10/17 00:29:10;;;;;;;12.88;4.72;;;;;;;10.46;78.16;102134.53;5013033;28;20105;-72
2021/10/17 00:31:35;;;;;;;11.07;4.80;;;;;;;10.43;78.13;102134.44;5012810;28;20034;-72
2021/10/17 00:34:00;;;;;;;12.25;5.10;;;;;;;10.48;77.93;102142.50;5013866;28;20061;-72
2021/10/17 00:36:27;;;;;;;19.48;4.88;;;;;;;10.45;78.12;102140.63;5014042;28;20462;-72
2021/10/17 00:38:53;;;;;;;11.70;4.55;;;;;;;10.44;78.27;102141.50;5013855;28;20054;-72
2021/10/17 00:41:19;;;;;;;14.18;3.90;;;;;;;10.46;78.23;102134.53;5013840;28;20485;-72
2021/10/17 00:43:45;;;;;;;11.20;4.72;;;;;;;10.44;78.46;102136.25;5012665;28;20389;-72
2021/10/17 00:46:20;;;;;;;11.55;4.05;;;;;;;10.43;78.66;102131.81;5013743;28;20084;-72
2021/10/17 00:48:46;;;;;;;15.98;4.90;;;;;;;10.43;78.99;102142.31;5013273;28;20537;-72
2021/10/17 00:51:12;;;;;;;14.55;3.85;;;;;;;10.42;78.85;102137.91;5013573;28;20105;-72
2021/10/17 00:53:38;;;;;;;17.17;5.13;;;;;;;10.46;78.54;102134.53;5024269;28;20056;-72
2021/10/17 00:56:04;;;;;;;17.08;4.78;;;;;;;10.45;78.65;102127.47;5033516;28;20083;-72
2021/10/17 00:58:29;;;;;;;16.15;5.13;;;;;;;10.47;78.63;102114.38;5033187;28;20025;-72
2021/10/17 01:00:55;;;;;;;14.95;4.75;;;;;;;10.46;78.80;102120.50;5033244;28;20028;-72
2021/10/17 01:03:20;;;;;;;8.32;3.75;;;;;;;10.44;79.22;102123.06;5033277;28;20072;-72
2021/10/17 01:05:47;;;;;;;13.48;4.70;;;;;;;10.48;78.78;102120.56;5033286;28;20152;-71
2021/10/17 01:08:12;;;;;;;11.00;5.20;;;;;;;10.48;78.75;102120.56;5030545;28;20087;-72
2021/10/17 01:10:38;;;;;;;15.70;4.10;;;;;;;10.49;78.43;102120.59;5013875;28;20029;-72
2021/10/17 01:13:03;;;;;;;12.65;4.65;;;;;;;10.48;78.68;102120.56;5012344;28;20109;-71
2021/10/17 01:15:29;;;;;;;16.52;5.47;;;;;;;10.49;78.76;102117.09;5012838;28;20037;-71
2021/10/17 01:17:54;;;;;;;13.30;5.43;;;;;;;10.50;78.65;102114.50;5009003;28;20030;-71
2021/10/17 01:20:20;;;;;;;12.68;4.88;;;;;;;10.50;78.35;102108.34;5013642;28;20034;-71
2021/10/17 01:22:46;;;;;;;17.90;4.80;;;;;;;10.49;78.55;102106.56;5012350;28;20124;-71
2021/10/17 01:25:11;;;;;;;14.50;4.93;;;;;;;10.48;78.67;102107.41;5013077;28;20050;-73
2021/10/17 01:27:37;;;;;;;12.48;4.15;;;;;;;10.53;78.53;102105.84;5013240;28;20144;-72
2021/10/17 01:30:05;;;;;;;12.63;4.93;;;;;;;10.51;78.39;102110.13;5013778;28;20033;-71
2021/10/17 01:32:30;;;;;;;14.00;5.30;;;;;;;10.52;78.54;102101.41;5013444;28;20029;-72
2021/10/17 01:34:55;;;;;;;12.20;4.53;;;;;;;10.53;78.33;102109.34;5013431;28;20560;-72
2021/10/17 01:37:21;;;;;;;14.18;4.65;;;;;;;10.52;78.46;102107.56;5013115;28;20117;-72
2021/10/17 01:39:46;;;;;;;11.57;4.50;;;;;;;10.51;78.96;102112.75;5013272;28;20018;-72
2021/10/17 01:42:11;;;;;;;14.18;4.70;;;;;;;10.53;78.28;102108.47;5013228;28;20466;-73
2021/10/17 01:44:37;;;;;;;13.73;5.20;;;;;;;10.51;78.51;102111.00;5012672;28;20072;-72
2021/10/17 01:47:06;;;;;;;16.70;5.90;;;;;;;10.57;77.98;102102.47;5013168;28;20029;-73
2021/10/17 01:49:31;;;;;;;13.35;4.38;;;;;;;10.58;78.05;102104.25;5013305;28;20092;-71
2021/10/17 01:51:57;;;;;;;16.45;4.95;;;;;;;10.56;78.60;102104.19;5012565;28;20493;-72
2021/10/17 01:54:23;;;;;;;12.18;4.80;;;;;;;10.57;77.80;102105.09;5017114;28;20022;-73
2021/10/17 01:56:49;;;;;;;12.32;4.50;;;;;;;10.54;78.34;102105.88;5015928;28;20121;-73
2021/10/17 01:59:15;;;;;;;15.35;5.28;;;;;;;10.56;78.40;102098.03;5017207;28;20113;-73
2021/10/17 02:01:40;;;;;;;17.08;4.93;;;;;;;10.55;78.49;102098.88;5017271;28;20105;-72
2021/10/17 02:04:06;;;;;;;13.50;4.85;;;;;;;10.53;78.19;102103.22;5017467;28;20061;-72
2021/10/17 02:06:32;;;;;;;13.63;4.95;;;;;;;10.53;78.02;102097.94;5015399;28;20029;-72
2021/10/17 02:08:59;;;;;;;17.17;5.47;;;;;;;10.54;78.15;102090.09;5017022;28;20029;-72
2021/10/17 02:11:24;;;;;;;15.88;5.05;;;;;;;10.55;78.09;102090.97;5016821;28;20037;-72
2021/10/17 02:13:50;;;;;;;11.02;4.32;;;;;;;10.57;78.11;102094.59;5015554;28;20025;-72
2021/10/17 02:16:15;;;;;;;15.30;5.30;;;;;;;10.54;77.74;102100.63;5016599;28;20367;-72
2021/10/17 02:18:40;;;;;;;17.75;5.53;;;;;;;10.59;77.84;102104.34;5016404;28;20476;-72
2021/10/17 02:21:06;;;;;;;15.88;5.45;;;;;;;10.57;77.75;102099.84;5014735;28;20073;-72
2021/10/17 02:23:32;;;;;;;18.15;5.63;;;;;;;10.51;77.69;102102.22;5016091;28;20026;-71
2021/10/17 02:25:58;;;;;;;15.50;5.53;;;;;;;10.51;78.10;102100.50;5016235;28;20032;-72
2021/10/17 02:28:23;;;;;;;16.55;5.63;;;;;;;10.52;78.16;102089.13;5016301;28;20113;-72
2021/10/17 02:30:48;;;;;;;14.38;5.03;;;;;;;10.49;78.19;102094.28;5016735;28;20025;-72
2021/10/17 02:33:14;;;;;;;14.10;4.75;;;;;;;10.50;78.77;102097.81;5015581;28;20026;-72
2021/10/17 02:35:39;;;;;;;15.15;4.72;;;;;;;10.54;78.48;102100.63;5015152;28;20083;-72
2021/10/17 02:38:05;;;;;;;13.88;4.60;;;;;;;10.53;78.33;102095.31;5016687;28;20033;-72
2021/10/17 02:40:30;;;;;;;11.98;5.22;;;;;;;10.52;78.37;102096.16;5015845;28;20112;-72
2021/10/17 02:42:55;;;;;;;12.43;5.38;;;;;;;10.51;78.58;102095.22;5015069;28;20026;-72
2021/10/17 02:45:21;;;;;;;16.38;5.55;;;;;;;10.50;78.53;102092.53;5016719;28;20026;-72
2021/10/17 02:47:47;;;;;;;21.35;6.10;;;;;;;10.48;79.01;102091.59;5016016;28;20405;-72
2021/10/17 02:50:12;;;;;;;15.20;5.40;;;;;;;10.46;78.94;102092.44;5015199;28;20030;-72
2021/10/17 02:52:38;;;;;;;15.57;5.43;;;;;;;10.45;79.38;102082.75;5019824;28;20040;-72
2021/10/17 02:55:03;;;;;;;10.02;4.78;;;;;;;10.48;79.00;102083.72;5035681;28;20013;-72
2021/10/17 02:57:29;;;;;;;14.90;5.57;;;;;;;10.45;78.84;102073.97;5035705;28;20037;-72
2021/10/17 02:59:54;;;;;;;13.10;5.70;;;;;;;10.43;79.19;102076.53;5034193;28;20025;-72
2021/10/17 03:02:19;;;;;;;15.10;5.75;;;;;;;10.42;79.18;102073.88;5035363;28;20048;-72
2021/10/17 03:04:45;;;;;;;12.48;5.53;;;;;;;10.41;79.02;102072.94;5035357;28;20073;-72
2021/10/17 03:07:10;;;;;;;16.83;5.45;;;;;;;10.44;79.11;102082.69;5035441;28;20067;-72
2021/10/17 03:09:35;;;;;;;15.35;4.65;;;;;;;10.45;78.27;102059.06;5015280;28;20101;-71
2021/10/17 03:12:00;;;;;;;16.08;5.43;;;;;;;10.44;78.65;102065.19;5015625;28;20026;-72
2021/10/17 03:14:26;;;;;;;13.90;4.95;;;;;;;10.46;78.51;102060.84;5015215;28;20034;-73
2021/10/17 03:16:51;;;;;;;9.65;4.82;;;;;;;10.44;78.49;102057.28;5015633;28;20014;-73
2021/10/17 03:19:16;;;;;;;19.15;6.60;;;;;;;10.44;78.02;102054.66;5015288;28;20088;-72
2021/10/17 03:21:43;;;;;;;12.27;5.88;;;;;;;10.45;78.56;102059.06;5015451;28;20373;-72
2021/10/17 03:24:09;;;;;;;13.90;5.63;;;;;;;10.47;77.84;102051.22;5015277;28;20132;-72
2021/10/17 03:26:34;;;;;;;12.25;5.65;;;;;;;10.46;78.05;102055.59;5014786;28;20045;-72
2021/10/17 03:28:59;;;;;;;14.13;5.68;;;;;;;10.43;77.51;102055.50;5015088;28;20028;-72
2021/10/17 03:31:25;;;;;;;14.63;6.28;;;;;;;10.44;77.76;102052.03;5014947;28;20028;-72
2021/10/17 03:33:50;;;;;;;13.50;6.15;;;;;;;10.44;77.83;102054.66;5015195;28;20026;-72
2021/10/17 03:36:15;;;;;;;16.42;6.25;;;;;;;10.44;78.81;102054.66;5015553;28;20042;-72
2021/10/17 03:38:41;;;;;;;18.63;7.43;;;;;;;10.42;78.90;102053.69;5015375;28;20049;-72
2021/10/17 03:41:07;;;;;;;13.73;6.60;;;;;;;10.40;78.61;102060.63;5014616;28;20022;-72
2021/10/17 03:43:32;;;;;;;15.07;6.55;;;;;;;10.39;78.62;102058.84;5030227;28;20033;-72
2021/10/17 03:45:58;;;;;;;19.25;7.13;;;;;;;10.37;78.83;102052.63;5015109;28;20021;-72
2021/10/17 03:48:23;;;;;;;16.58;5.97;;;;;;;10.38;78.72;102054.41;5014817;28;20022;-72
2021/10/17 03:50:48;;;;;;;17.25;7.53;;;;;;;10.37;78.74;102047.34;5014874;28;20034;-72
2021/10/17 03:53:14;;;;;;;14.32;6.63;;;;;;;10.38;78.17;102046.53;5014883;28;20042;-71
2021/10/17 03:55:41;;;;;;;21.95;6.50;;;;;;;10.39;78.29;102032.53;5015154;28;20030;-72
2021/10/17 03:58:07;;;;;;;17.05;7.60;;;;;;;10.39;78.32;102034.25;5015266;28;20018;-72
2021/10/17 04:00:32;;;;;;;17.38;6.82;;;;;;;10.39;78.47;102036.88;5014963;28;20026;-72
2021/10/17 04:02:58;;;;;;;16.20;6.63;;;;;;;10.39;78.74;102036.88;5015018;28;20052;-71
2021/10/17 04:05:23;;;;;;;19.02;7.80;;;;;;;10.40;78.22;102031.66;5014425;28;20026;-72
2021/10/17 04:07:49;;;;;;;20.20;7.53;;;;;;;10.42;77.96;102032.63;5014900;28;20042;-72
2021/10/17 04:10:14;;;;;;;20.42;8.18;;;;;;;10.46;77.75;102037.19;5014315;28;20473;-72
2021/10/17 04:12:40;;;;;;;23.02;8.85;;;;;;;10.46;77.94;102039.81;5014157;28;20030;-72
2021/10/17 04:15:06;;;;;;;26.25;8.25;;;;;;;10.42;77.66;102026.50;5014263;28;20022;-71
2021/10/17 04:17:32;;;;;;;16.67;7.63;;;;;;;10.48;77.86;102036.34;5013934;28;20112;-72
2021/10/17 04:19:57;;;;;;;21.50;7.80;;;;;;;10.48;77.80;102036.34;5013816;28;20453;-72
2021/10/17 04:22:23;;;;;;;23.92;8.02;;;;;;;10.46;77.85;102029.28;5014200;28;20040;-72
2021/10/17 04:24:48;;;;;;;21.23;9.05;;;;;;;10.47;78.08;102035.44;5012633;28;20048;-71
2021/10/17 04:27:14;;;;;;;20.92;7.93;;;;;;;10.49;77.79;102022.34;5014546;28;20025;-72
2021/10/17 04:29:40;;;;;;;20.67;8.10;;;;;;;10.48;77.49;102028.44;5014657;28;20392;-72
2021/10/17 04:32:07;;;;;;;24.13;8.30;;;;;;;10.50;77.81;102021.47;5012784;28;20075;-72
2021/10/17 04:34:32;;;;;;;25.70;8.90;;;;;;;10.50;77.70;102032.00;5014098;28;20033;-72
2021/10/17 04:37:00;;;;;;;21.15;7.35;;;;;;;10.50;77.69;102026.75;5012693;28;20038;-72
2021/10/17 04:39:26;;;;;;;20.27;9.25;;;;;;;10.51;77.49;102037.31;5013932;28;20184;-71
2021/10/17 04:41:51;;;;;;;21.52;8.93;;;;;;;10.48;77.31;102036.34;5013930;28;20489;-71
2021/10/17 04:44:17;;;;;;;25.98;9.65;;;;;;;10.46;77.81;102037.19;5014268;28;20028;-72
2021/10/17 04:46:42;;;;;;;18.42;7.85;;;;;;;10.46;77.35;102036.28;5014294;28;20111;-72
2021/10/17 04:49:07;;;;;;;19.52;8.52;;;;;;;10.52;77.31;102038.25;5014255;28;20044;-71
2021/10/17 04:51:33;;;;;;;17.25;8.25;;;;;;;10.51;77.41;102036.44;5013578;28;20034;-72
2021/10/17 04:53:58;;;;;;;24.40;9.35;;;;;;;10.54;77.21;102036.53;5021053;28;20038;-72
2021/10/17 04:56:24;;;;;;;23.17;8.10;;;;;;;10.53;77.34;102040.03;5012428;28;20056;-72
2021/10/17 04:58:49;;;;;;;17.63;7.97;;;;;;;10.52;77.40;102044.38;5012412;28;20544;-72
2021/10/17 05:01:15;;;;;;;23.75;8.43;;;;;;;10.55;76.64;102038.34;5014126;28;20080;-72
2021/10/17 05:03:40;;;;;;;20.17;8.30;;;;;;;10.56;76.87;102041.03;5013920;28;20088;-72
2021/10/17 05:06:06;;;;;;;22.40;7.93;;;;;;;10.56;77.19;102041.03;5012619;28;20486;-72
2021/10/17 05:08:31;;;;;;;23.77;7.85;;;;;;;10.56;77.47;102043.66;5013956;28;20050;-72
2021/10/17 05:10:57;;;;;;;24.55;8.15;;;;;;;10.55;77.28;102046.25;5013737;28;20030;-73
2021/10/17 05:13:23;;;;;;;25.60;8.48;;;;;;;10.56;77.20;102040.13;5011847;28;20026;-73
2021/10/17 05:15:48;;;;;;;24.20;8.82;;;;;;;10.57;76.84;102047.22;5013442;28;20030;-73
2021/10/17 05:18:13;;;;;;;16.77;7.68;;;;;;;10.57;77.50;102041.94;5012170;28;20121;-72
2021/10/17 05:20:39;;;;;;;26.20;8.05;;;;;;;10.57;77.19;102044.56;5013535;28;20028;-72
2021/10/17 05:23:06;;;;;;;16.92;7.00;;;;;;;10.60;76.63;102039.41;5013944;28;20017;-73
2021/10/17 05:25:32;;;;;;;16.38;7.03;;;;;;;10.61;76.85;102042.09;5013591;28;20056;-73
2021/10/17 05:27:57;;;;;;;14.23;6.28;;;;;;;10.63;76.79;102042.13;5013894;28;20030;-72
2021/10/17 05:30:23;;;;;;;18.92;6.57;;;;;;;10.60;77.04;102042.94;5014770;28;20381;-72
2021/10/17 05:32:48;;;;;;;18.98;6.22;;;;;;;10.60;77.10;102047.31;5015681;28;20029;-71
2021/10/17 05:35:13;;;;;;;18.38;6.82;;;;;;;10.59;77.25;102050.78;5017547;28;20033;-72
2021/10/17 05:37:39;;;;;;;14.18;5.82;;;;;;;10.61;77.26;102059.63;5016161;28;20022;-72
2021/10/17 05:40:05;;;;;;;16.85;6.00;;;;;;;10.61;77.06;102043.84;5017279;28;20037;-72
2021/10/17 05:42:30;;;;;;;19.15;5.93;;;;;;;10.60;77.23;102052.56;5015958;28;20516;-72
2021/10/17 05:44:56;;;;;;;11.93;5.43;;;;;;;10.61;77.17;102054.38;5016170;28;20030;-71
2021/10/17 05:47:21;;;;;;;19.38;6.72;;;;;;;10.62;76.85;102058.78;5015959;28;20114;-71
2021/10/17 05:49:47;;;;;;;18.05;5.53;;;;;;;10.63;77.11;102055.31;5016962;28;20029;-72
2021/10/17 05:52:12;;;;;;;19.08;6.18;;;;;;;10.63;76.73;102050.03;5017280;28;20117;-72
2021/10/17 05:54:38;;;;;;;19.00;6.53;;;;;;;10.64;76.80;102051.84;5017000;28;20069;-72
2021/10/17 05:57:03;;;;;;;15.35;5.20;;;;;;;10.61;76.93;102050.00;5016926;28;20037;-72
2021/10/17 05:59:28;;;;;;;14.65;6.05;;;;;;;10.60;77.34;102055.19;5017174;28;20028;-72
2021/10/17 06:01:54;;;;;;;16.40;5.95;;;;;;;10.62;76.84;102061.41;5015812;28;20112;-71
2021/10/17 06:04:19;;;;;;;17.33;5.97;;;;;;;10.59;77.26;102069.19;5016885;28;20113;-70
2021/10/17 06:06:44;;;;;;;14.77;5.30;;;;;;;10.59;77.17;102070.13;5016844;28;20029;-72
2021/10/17 06:09:10;;;;;;;12.55;5.47;;;;;;;10.59;77.54;102070.13;5015612;28;20030;-72
2021/10/17 06:11:36;;;;;;;20.33;5.85;;;;;;;10.60;77.44;102074.50;5016725;28;20474;-72
2021/10/17 06:14:01;;;;;;;14.55;5.90;;;;;;;10.59;77.37;102070.13;5016218;28;20137;-72
2021/10/17 06:16:27;;;;;;;20.20;6.57;;;;;;;10.61;77.63;102070.16;5016573;28;20057;-72
2021/10/17 06:18:52;;;;;;;18.45;5.97;;;;;;;10.60;77.84;102074.50;5016780;28;20064;-73
2021/10/17 06:21:18;;;;;;;11.82;5.55;;;;;;;10.59;77.37;102070.13;5016386;28;20033;-71
2021/10/17 06:23:43;;;;;;;17.52;5.32;;;;;;;10.62;77.58;102078.09;5016238;28;20533;-73
2021/10/17 06:26:09;;;;;;;15.93;5.70;;;;;;;10.58;77.55;102070.94;5015404;28;20494;-72
2021/10/17 06:28:34;;;;;;;13.30;5.90;;;;;;;10.61;77.26;102080.69;5013960;28;20121;-72
2021/10/17 06:30:59;;;;;;;15.23;5.95;;;;;;;10.63;76.54;102079.91;5015082;28;20049;-71
2021/10/17 06:33:25;;;;;;;14.07;5.43;;;;;;;10.68;76.52;102087.97;5014949;28;20054;-72
2021/10/17 06:35:50;;;;;;;13.25;5.60;;;;;;;10.71;76.56;102082.78;5013742;28;20564;-71
2021/10/17 06:38:16;;;;;;;18.10;5.93;;;;;;;10.74;76.69;102082.94;5013644;28;20033;-72
2021/10/17 06:40:41;;;;;;;20.38;6.90;;;;;;;10.73;76.02;102075.88;5014516;28;20026;-73
2021/10/17 06:43:07;;;;;;;16.30;5.65;;;;;;;10.77;75.91;102077.75;5014850;28;20025;-72
2021/10/17 06:45:32;;;;;;;19.67;5.95;;;;;;;10.82;75.44;102083.19;5014517;28;20040;-72
2021/10/17 06:47:57;;;;;;;17.50;5.75;;;;;;;10.84;75.57;102088.50;5013525;28;20072;-72
2021/10/17 06:50:23;;;;;;;11.48;5.10;;;;;;;10.88;75.92;102090.41;5014601;28;20024;-71
2021/10/17 06:52:50;;;;;;;13.60;4.97;;;;;;;10.89;75.93;102081.66;5019964;28;20104;-72
2021/10/17 06:55:16;;;;;;;13.32;5.40;;;;;;;10.88;76.21;102085.13;5034545;28;20036;-71
2021/10/17 06:57:42;;;;;;;17.75;4.95;;;;;;;10.87;75.82;102078.09;5034327;28;20026;-72
2021/10/17 07:00:08;;;;;;;15.20;4.97;;;;;;;10.87;76.23;102081.63;5034148;28;20112;-71
2021/10/17 07:02:33;;;;;;;16.13;5.90;;;;;;;10.87;75.85;102084.25;5034367;28;20389;-71
2021/10/17 07:04:59;;;;;;;12.10;4.88;;;;;;;10.90;75.94;102086.97;5021214;28;20040;-72
2021/10/17 07:07:24;;;;;;;13.00;5.40;;;;;;;10.91;75.78;102080.00;5014684;28;20022;-72
2021/10/17 07:09:50;;;;;;;11.13;4.63;;;;;;;10.94;75.68;102090.63;5014649;28;20462;-73
2021/10/17 07:12:15;;;;;;;16.45;6.15;;;;;;;10.95;75.60;102082.78;5014352;28;20076;-72
2021/10/17 07:14:40;;;;;;;14.40;4.90;;;;;;;11.00;75.47;102080.31;5013244;28;20034;-72
2021/10/17 07:17:06;;;;;;;12.55;4.35;;;;;;;10.99;75.40;102085.50;5014254;28;20034;-72
2021/10/17 07:19:31;;;;;;;13.85;4.95;;;;;;;11.07;75.08;102081.41;5013132;28;20037;-72
2021/10/17 07:21:56;;;;;;;18.90;5.30;;;;;;;11.06;75.18;102080.50;5013109;28;20069;-71
2021/10/17 07:24:22;;;;;;;12.27;5.10;;;;;;;11.07;75.62;102079.69;4975329;28;1096201;-72
2021/10/17 07:26:47;;;;;;;20.05;6.50;;;;;;;11.10;75.43;102085.03;5015165;28;20034;-72
2021/10/17 07:29:13;;;;;;;15.07;5.90;;;;;;;11.16;74.49;102083.47;5015062;28;20501;-72
2021/10/17 07:31:38;;;;;;;20.17;5.07;;;;;;;11.16;75.21;102092.25;5015002;28;20038;-71
2021/10/17 07:34:03;;;;;;;21.58;6.10;;;;;;;11.23;74.73;102088.09;5015133;28;20109;-72
2021/10/17 07:36:29;;;;;;;14.98;5.22;;;;;;;11.21;75.02;102095.06;5014952;28;20029;-72
2021/10/17 07:38:54;;;;;;;14.18;5.15;;;;;;;11.27;74.06;102090.00;5014991;28;20032;-73
2021/10/17 07:41:20;;;;;;;14.55;4.97;;;;;;;11.32;74.41;102087.53;5013706;28;20026;-73
2021/10/17 07:43:46;;;;;;;14.02;4.55;;;;;;;11.36;73.92;102090.31;5013991;28;20026;-71
2021/10/17 07:46:11;;;;;;;16.10;4.95;;;;;;;11.37;73.67;102092.09;5014931;28;20068;-71
2021/10/17 07:48:38;;;;;;;16.33;4.40;;;;;;;11.44;73.35;102093.19;5014635;28;20045;-72
2021/10/17 07:51:05;;;;;;;20.92;5.57;;;;;;;11.45;73.68;102093.25;5013806;28;20025;-72
2021/10/17 07:53:31;;;;;;;13.82;4.97;;;;;;;11.52;73.52;102096.97;5024777;28;20104;-72
2021/10/17 07:55:57;;;;;;;13.32;5.10;;;;;;;11.57;73.07;102094.47;5034663;28;20021;-72
2021/10/17 07:58:22;;;;;;;14.23;4.55;;;;;;;11.63;72.72;102094.69;5034317;28;20025;-73
2021/10/17 08:00:47;;;;;;;15.63;5.13;;;;;;;11.66;72.96;102097.44;5034232;28;20033;-72
2021/10/17 08:03:13;;;;;;;17.63;5.50;;;;;;;11.61;72.96;102101.66;5034278;28;20053;-70
2021/10/17 08:05:41;;;;;;;15.80;5.13;;;;;;;11.61;73.03;102094.66;5034164;28;20049;-72
2021/10/17 08:08:06;;;;;;;15.32;5.15;;;;;;;11.62;73.28;102099.09;5034590;28;20075;-72
2021/10/17 08:10:31;;;;;;;15.65;5.60;;;;;;;11.68;72.74;102101.03;5034191;28;20056;-72
2021/10/17 08:12:57;;;;;;;14.13;5.07;;;;;;;11.73;72.83;102102.03;5034363;28;20022;-72
2021/10/17 08:15:24;;;;;;;14.27;5.38;;;;;;;11.73;72.85;102096.75;5034374;28;20115;-72
2021/10/17 08:17:50;;;;;;;13.45;5.28;;;;;;;11.72;72.34;102089.72;5034187;28;20029;-72
2021/10/17 08:20:16;;;;;;;16.40;5.13;;;;;;;11.75;72.53;102088.94;5033908;28;20095;-72
2021/10/17 08:22:41;;;;;;;17.58;5.63;;;;;;;11.81;72.46;102100.56;5032583;28;20481;-73
2021/10/17 08:25:08;;;;;;;13.68;5.40;;;;;;;11.81;72.08;102097.94;5033580;28;20190;-71
2021/10/17 08:27:34;;;;;;;19.50;5.28;;;;;;;11.82;72.37;102094.44;5033933;28;20029;-71
2021/10/17 08:30:00;;;;;;;13.30;5.20;;;;;;;11.82;72.04;102085.63;5033821;28;20029;-72
2021/10/17 08:32:25;;;;;;;15.25;5.40;;;;;;;11.87;72.29;102093.66;5033680;28;20521;-73
2021/10/17 08:34:50;;;;;;;14.38;5.13;;;;;;;11.96;72.05;102101.91;5032421;28;20033;-73
2021/10/17 08:37:16;;;;;;;13.40;5.30;;;;;;;12.05;71.16;102096.94;5033634;28;20083;-72
2021/10/17 08:39:41;;;;;;;15.00;5.57;;;;;;;12.15;70.43;102084.91;5033535;28;20088;-72
2021/10/17 08:42:07;;;;;;;10.68;5.18;;;;;;;12.28;70.31;102086.19;5033573;28;20500;-72
2021/10/17 08:44:32;;;;;;;11.45;5.00;;;;;;;12.40;69.87;102091.81;5033419;28;20429;-73
2021/10/17 08:47:00;;;;;;;13.30;5.25;;;;;;;12.46;68.82;102086.69;5033487;28;20079;-73
2021/10/17 08:49:27;;;;;;;12.95;5.88;;;;;;;12.49;69.04;102088.53;5032219;28;20485;-72
2021/10/17 08:51:53;;;;;;;14.38;5.47;;;;;;;12.48;68.14;102085.00;5033795;28;20093;-73
2021/10/17 08:54:19;;;;;;;14.30;5.32;;;;;;;12.51;68.47;102081.56;5016032;28;20034;-73
2021/10/17 08:56:44;;;;;;;10.23;5.07;;;;;;;12.53;68.42;102086.88;5013705;28;20061;-71
2021/10/17 08:59:10;;;;;;;14.80;5.57;;;;;;;12.59;69.04;102081.78;5013760;28;20104;-72
2021/10/17 09:01:36;;;;;;;11.07;4.80;;;;;;;12.63;67.98;102083.66;5013805;28;20057;-71
2021/10/17 09:04:03;;;;;;;17.13;5.95;;;;;;;12.76;68.30;102075.19;5013628;28;20041;-72
2021/10/17 09:06:34;;;;;;;13.10;5.28;;;;;;;12.87;68.39;102087.81;5013800;28;20018;-72
2021/10/17 09:09:07;;;;;;;14.07;5.72;;;;;;;12.86;67.44;102081.66;5013617;28;20034;-72
2021/10/17 09:11:44;;;;;;;14.60;4.82;;;;;;;12.90;67.39;102077.31;5013462;28;20022;-72
2021/10/17 09:14:15;;;;;;;15.68;5.68;;;;;;;13.07;66.72;102081.31;5013548;28;20018;-72
2021/10/17 09:16:42;;;;;;;14.15;5.47;;;;;;;13.18;65.88;102080.72;5012527;28;20031;-73
2021/10/17 09:19:27;;;;;;;11.50;4.97;;;;;;;13.39;65.05;102076.00;5013424;28;20034;-73
2021/10/17 09:22:00;;;;;;;16.38;5.60;;;;;;;13.52;65.38;102078.94;5013311;28;20383;-72
2021/10/17 09:24:29;;;;;;;12.57;5.55;;;;;;;13.62;64.40;102080.97;5013385;28;20474;-73
2021/10/17 09:27:30;;;;;;;14.65;4.88;;;;;;;13.65;64.29;102094.25;5013449;28;20021;-73
2021/10/17 09:29:55;;;;;;;14.43;5.53;;;;;;;13.57;63.80;102080.84;5011122;28;20026;-73
2021/10/17 09:32:27;;;;;;;17.08;5.70;;;;;;;13.35;64.59;102092.59;5012600;28;20490;-72
2021/10/17 09:35:00;;;;;;;11.23;5.20;;;;;;;13.32;65.29;102087.22;5011856;28;20041;-73
2021/10/17 09:37:34;;;;;;;16.67;5.75;;;;;;;13.12;66.61;102079.69;5013286;28;20034;-72
2021/10/17 09:40:03;;;;;;;;;;;;;;;13.09;66.34;102089.28;5012360;28;20482;-73
2021/10/17 09:42:36;;;;;;;16.40;4.93;;;;;;;13.01;66.80;102091.75;5013219;28;19909;-73
2021/10/17 09:45:01;;;;;;;12.80;4.83;;;;;;;12.99;66.24;102099.63;5012928;28;20029;-72
2021/10/17 09:47:39;;;;;;;12.77;5.10;;;;;;;13.02;66.05;102092.63;5013077;28;20034;-72
2021/10/17 09:50:12;;;;;;;10.90;4.53;;;;;;;13.03;65.95;102095.28;5013083;28;20490;-72
2021/10/17 09:52:37;;;;;;;9.25;4.68;;;;;;;13.15;66.29;102092.97;5016721;28;20024;-73
2021/10/17 09:55:11;;;;;;;11.77;5.07;;;;;;;13.39;65.87;102089.22;5032858;28;20013;-72
2021/10/17 09:57:36;;;;;;;14.57;5.15;;;;;;;13.71;65.42;102102.31;5032781;28;20539;-72
2021/10/17 10:00:04;;;;;;;9.52;5.18;;;;;;;13.96;63.69;102087.91;5032778;28;20021;-72
2021/10/17 10:02:30;;;;;;;12.73;5.10;;;;;;;14.28;61.75;102077.16;5032663;28;20511;-72
2021/10/17 10:05:00;;;;;;;15.40;4.68;;;;;;;14.56;60.83;102064.47;5032634;28;20026;-73
2021/10/17 10:07:27;;;;;;;13.02;5.18;;;;;;;14.71;60.69;102069.19;5032963;28;20037;-74
2021/10/17 10:09:54;;;;;;;18.52;4.65;;;;;;;14.80;60.76;102069.38;5032399;28;20495;-73
2021/10/17 10:12:22;;;;;;;11.52;4.70;;;;;;;14.79;60.14;102066.69;5032839;28;20108;-72
2021/10/17 10:14:49;;;;;;;14.55;4.65;;;;;;;14.93;59.22;102072.25;5032803;28;20040;-72
2021/10/17 10:17:15;;;;;;;11.93;4.60;;;;;;;14.86;59.23;102067.72;5036148;28;20044;-73
2021/10/17 10:19:42;;;;;;;11.65;4.25;;;;;;;14.86;59.56;102068.59;5036116;28;20029;-72
2021/10/17 10:22:08;;;;;;;14.35;4.75;;;;;;;15.06;59.91;102079.56;5036201;28;20113;-73
2021/10/17 10:24:34;;;;;;;10.43;4.45;;;;;;;15.19;60.50;102070.03;5034870;28;20084;-73
2021/10/17 10:27:01;;;;;;;11.90;4.72;;;;;;;15.22;58.80;102072.78;5035994;28;20108;-73
2021/10/17 10:29:30;;;;;;;8.25;3.80;;;;;;;15.17;58.06;102064.72;5034647;28;20026;-71
2021/10/17 10:32:00;;;;;;;9.65;4.28;;;;;;;15.13;57.69;102064.66;5035972;28;20035;-72
2021/10/17 10:34:31;;;;;;;13.80;5.15;;;;;;;15.07;58.02;102069.84;5035974;28;20083;-72
2021/10/17 10:36:56;;;;;;;11.65;4.10;;;;;;;14.89;57.73;102062.47;5034573;28;20048;-71
2021/10/17 10:39:23;;;;;;;8.27;3.33;;;;;;;14.92;57.63;102062.50;5034607;28;20389;-73
2021/10/17 10:41:55;;;;;;;9.48;3.97;;;;;;;14.74;58.20;102063.06;5035917;28;20017;-72
2021/10/17 10:44:41;;;;;;;9.52;3.55;;;;;;;14.63;57.99;102061.09;5036203;28;20076;-71
2021/10/17 10:47:26;;;;;;;11.90;4.03;;;;;;;14.59;59.82;102063.63;5036148;28;20032;-73
2021/10/17 10:49:56;;;;;;;10.40;4.57;;;;;;;14.57;60.22;102073.28;5035967;28;20182;-72
2021/10/17 10:52:24;;;;;;;9.73;3.78;;;;;;;14.48;60.16;102072.25;5034071;28;20045;-72
2021/10/17 10:55:41;;;;;;;10.27;3.75;;;;;;;14.32;61.38;102072.78;5015875;28;20144;-72
2021/10/17 10:58:26;;;;;;;9.73;3.85;;;;;;;14.24;61.41;102087.63;5015329;28;20045;-71
2021/10/17 11:00:54;;;;;;;10.88;3.75;;;;;;;14.22;62.37;102084.94;5015705;28;20041;-72
2021/10/17 11:03:20;;;;;;;10.48;3.65;;;;;;;14.15;61.95;102083.91;5015885;28;20545;-73
2021/10/17 11:06:04;;;;;;;11.40;3.95;;;;;;;14.09;61.28;102078.47;5015800;28;20164;-72
2021/10/17 11:08:29;;;;;;;9.50;4.18;;;;;;;14.02;62.07;102081.84;5015686;28;20033;-72
2021/10/17 11:10:57;;;;;;;8.48;3.60;;;;;;;14.05;62.10;102081.03;5016003;28;20033;-72
2021/10/17 11:13:43;;;;;;;11.90;4.25;;;;;;;14.07;62.78;102080.22;5015834;28;20026;-72